CheckWX is a tool to help pilots better visualize weather data.  It is not intended as a substitute for an official pre-flight weather briefing.

01:04:02 UTC

EDNY TAF
Friedrichshafen Airport
Friedrichshafen, Germany
TAF EDNY 232300Z 2400/2424 04008KT CAVOK BECMG 2406/2408 03003KT TEMPO 2410/2415 24005KT

Feb-24@
00:00 UTC

Feb-24 @ 00:00 UTC

Feb-24@
06:00 UTC

Feb-24 @ 06:00 UTC

TAF EDNY 232300Z 2400/2424 04008KT CAVOK
Wind
  • 040° at 8 KTS
Conditions
No significant weather
Cloud Levels
  • No significant clouds

Feb-24@
06:00 UTC

Feb-24 @ 06:00 UTC

Feb-25@
00:00 UTC

Feb-25 @ 00:00 UTC

BECMG 2406/2408 03003KT

Becoming

Becoming Conditions expected by Sun, Feb 24, 2019 @ 08:00 UTC

Wind
  • 030° at 3 KTS
Conditions
No significant weather
Cloud Levels
  • No significant clouds

Feb-24@
10:00 UTC

Feb-24 @ 10:00 UTC

Feb-24@
15:00 UTC

Feb-24 @ 15:00 UTC

TEMPO 2410/2415 24005KT

Temporary

Temporary Changes expected for less than half the time period

Wind
  • 240° at 5 KTS